createdAt,value
2019-05-07T00:02:08.041Z,80.13
2019-05-07T00:04:38.538Z,79.40
2019-05-07T00:07:09.235Z,80.49
2019-05-07T00:09:39.611Z,80.88
2019-05-07T00:12:12.463Z,81.95
2019-05-07T00:14:42.971Z,81.23
2019-05-07T00:17:14.456Z,81.87
2019-05-07T00:19:44.735Z,82.56
2019-05-07T00:22:15.157Z,82.91
2019-05-07T00:24:45.555Z,82.66
2019-05-07T00:27:15.966Z,82.59
2019-05-07T00:29:46.453Z,83.67
2019-05-07T00:32:16.871Z,83.15
2019-05-07T00:34:51.346Z,82.59
2019-05-07T00:37:28.202Z,82.72
2019-05-07T00:40:13.315Z,82.69
2019-05-07T00:43:02.771Z,82.12
2019-05-07T00:45:43.969Z,81.79
2019-05-07T00:48:14.449Z,81.61
2019-05-07T00:50:46.503Z,81.39
2019-05-07T00:53:16.876Z,80.35
2019-05-07T00:55:47.371Z,80.85
2019-05-07T00:58:17.806Z,81.88
2019-05-07T01:00:48.259Z,82.54
2019-05-07T01:03:18.634Z,82.48
2019-05-07T01:05:49.018Z,82.37
2019-05-07T01:08:19.413Z,83.13
2019-05-07T01:10:49.848Z,83.30
2019-05-07T01:13:20.363Z,83.46
2019-05-07T01:15:52.994Z,83.48
2019-05-07T01:18:23.465Z,83.39
2019-05-07T01:20:53.962Z,83.93
2019-05-07T01:23:24.351Z,82.91
2019-05-07T01:25:54.711Z,82.08
2019-05-07T01:28:25.033Z,81.94
2019-05-07T01:30:55.491Z,82.30
2019-05-07T01:33:42.383Z,81.64
2019-05-07T01:36:22.619Z,81.28
2019-05-07T01:38:53.289Z,80.24
2019-05-07T01:41:23.751Z,80.77
2019-05-07T01:43:54.276Z,80.91
2019-05-07T01:46:24.903Z,81.68
2019-05-07T01:48:57.480Z,81.91
2019-05-07T01:51:27.263Z,82.73
2019-05-07T01:53:57.705Z,83.40
2019-05-07T01:56:28.006Z,82.98
2019-05-07T01:58:58.442Z,83.28
2019-05-07T02:01:28.878Z,83.35
2019-05-07T02:04:27.414Z,81.93
2019-05-07T02:07:15.378Z,81.46
2019-05-07T02:09:54.273Z,81.79
2019-05-07T02:12:31.895Z,81.46
2019-05-07T02:15:02.828Z,81.81
2019-05-07T02:17:33.422Z,81.80
2019-05-07T02:20:03.894Z,81.88
2019-05-07T02:22:34.320Z,83.47
2019-05-07T02:25:04.796Z,83.91
2019-05-07T02:27:35.214Z,84.03
2019-05-07T02:30:06.067Z,82.92
2019-05-07T02:32:36.371Z,83.17
2019-05-07T02:35:06.928Z,82.03
2019-05-07T02:37:51.106Z,81.88
2019-05-07T02:40:45.577Z,81.65
2019-05-07T02:43:16.046Z,81.68
2019-05-07T02:46:20.573Z,83.16
2019-05-07T02:48:43.573Z,82.69
2019-05-07T02:51:23.811Z,82.50
2019-05-07T02:54:03.637Z,83.71
2019-05-07T02:56:34.285Z,84.26
2019-05-07T02:59:04.683Z,84.24
2019-05-07T03:01:35.125Z,84.05
2019-05-07T03:04:05.552Z,84.77
2019-05-07T03:06:36.108Z,83.76
2019-05-07T03:09:07.652Z,84.18
2019-05-07T03:11:38.201Z,82.80
2019-05-07T03:14:08.643Z,83.62
2019-05-07T03:16:44.302Z,84.00
2019-05-07T03:19:13.386Z,83.91
2019-05-07T03:21:56.066Z,83.48
2019-05-07T03:24:52.687Z,83.55
2019-05-07T03:27:23.414Z,84.26
2019-05-07T03:30:17.401Z,84.28
2019-05-07T03:32:56.556Z,83.94
2019-05-07T03:35:37.395Z,83.79
2019-05-07T03:38:04.864Z,84.05
2019-05-07T03:40:36.609Z,83.38
2019-05-07T03:43:07.004Z,83.61
2019-05-07T03:45:49.528Z,84.79
2019-05-07T03:48:23.921Z,84.66
2019-05-07T03:50:53.775Z,83.83
2019-05-07T03:53:24.725Z,84.21
2019-05-07T03:55:55.179Z,83.78
2019-05-07T03:58:25.581Z,84.17
2019-05-07T04:00:56.090Z,84.39
2019-05-07T04:03:26.512Z,83.62
2019-05-07T04:05:56.980Z,83.98
2019-05-07T04:08:27.354Z,84.56
2019-05-07T04:10:57.786Z,84.64
2019-05-07T04:13:28.183Z,84.56
2019-05-07T04:15:58.587Z,83.84
2019-05-07T04:18:28.989Z,83.06
2019-05-07T04:20:59.304Z,82.55
2019-05-07T04:23:29.615Z,82.00
2019-05-07T04:26:16.800Z,82.38
2019-05-07T04:28:55.218Z,82.33
2019-05-07T04:31:27.641Z,81.64
2019-05-07T04:34:00.157Z,81.06
2019-05-07T04:36:34.349Z,81.07
2019-05-07T04:39:07.016Z,80.74
2019-05-07T04:41:37.518Z,79.72
2019-05-07T04:44:07.930Z,79.47
2019-05-07T04:46:38.366Z,79.94
2019-05-07T04:49:08.807Z,80.18
2019-05-07T04:52:04.039Z,80.75
2019-05-07T04:54:33.329Z,80.05
2019-05-07T04:57:05.422Z,79.93
2019-05-07T04:59:35.774Z,79.76
2019-05-07T05:02:18.464Z,80.08
2019-05-07T05:04:48.897Z,79.83
2019-05-07T05:07:19.332Z,80.40
2019-05-07T05:09:49.785Z,80.10
2019-05-07T05:12:22.464Z,80.54
2019-05-07T05:14:52.478Z,80.25
2019-05-07T05:17:23.043Z,80.63
2019-05-07T05:19:53.437Z,80.08
2019-05-07T05:22:32.847Z,80.53
2019-05-07T05:25:24.317Z,80.53
2019-05-07T05:27:54.707Z,80.54
2019-05-07T05:30:35.373Z,79.77
2019-05-07T05:33:05.868Z,79.63
2019-05-07T05:35:36.446Z,79.09
2019-05-07T05:38:06.992Z,79.17
2019-05-07T05:40:37.384Z,78.06
2019-05-07T05:43:17.997Z,77.22
2019-05-07T05:45:53.259Z,76.89
2019-05-07T05:48:24.138Z,76.61
2019-05-07T05:51:02.689Z,74.62
2019-05-07T05:53:40.021Z,73.58
2019-05-07T05:56:18.964Z,73.11
2019-05-07T05:59:27.905Z,71.85
2019-05-07T06:02:06.760Z,72.15
2019-05-07T06:04:48.001Z,71.37
2019-05-07T06:07:29.162Z,70.81
2019-05-07T06:10:12.845Z,71.36
2019-05-07T06:13:02.387Z,70.67
2019-05-07T06:15:59.998Z,69.52
2019-05-07T06:19:02.030Z,68.21
2019-05-07T06:21:52.594Z,65.98
2019-05-07T06:24:35.219Z,65.22
2019-05-07T06:27:05.859Z,63.90
2019-05-07T06:29:36.298Z,62.95
2019-05-07T06:32:09.438Z,62.46
2019-05-07T06:34:42.513Z,62.57
2019-05-07T06:37:11.965Z,62.62
2019-05-07T06:39:47.979Z,61.62
2019-05-07T06:42:43.076Z,62.28
2019-05-07T06:45:35.572Z,60.55
2019-05-07T06:48:06.191Z,60.59
2019-05-07T06:50:36.544Z,61.09
2019-05-07T06:53:06.943Z,61.89
2019-05-07T06:55:37.360Z,60.80
2019-05-07T06:58:12.224Z,58.29
2019-05-07T07:01:02.217Z,57.64
2019-05-07T07:03:41.966Z,56.93
2019-05-07T07:06:25.707Z,57.77
2019-05-07T07:09:24.000Z,56.36
2019-05-07T07:11:58.543Z,55.31
2019-05-07T07:14:28.930Z,52.54
2019-05-07T07:16:59.387Z,52.23
2019-05-07T07:19:32.017Z,50.25
2019-05-07T07:22:02.443Z,50.99
2019-05-07T07:24:32.994Z,51.09
2019-05-07T07:27:03.639Z,50.84
2019-05-07T07:29:35.698Z,48.87
2019-05-07T07:32:07.566Z,48.21
2019-05-07T07:34:44.432Z,47.16
2019-05-07T07:37:37.842Z,46.49
2019-05-07T07:40:33.939Z,44.11
2019-05-07T07:43:07.011Z,42.27
2019-05-07T07:45:36.600Z,41.36
2019-05-07T07:48:07.134Z,39.54
2019-05-07T07:50:37.507Z,38.95
2019-05-07T07:53:07.961Z,39.46
2019-05-07T07:55:43.676Z,39.92
2019-05-07T07:58:25.354Z,35.65
2019-05-07T08:01:12.209Z,34.09
2019-05-07T08:03:42.788Z,33.92
2019-05-07T08:06:13.163Z,33.54
2019-05-07T08:08:43.506Z,34.31
2019-05-07T08:11:13.977Z,35.80
2019-05-07T08:13:44.343Z,36.01
2019-05-07T08:16:14.796Z,36.28
2019-05-07T08:18:45.216Z,34.39
2019-05-07T08:21:15.712Z,32.76
2019-05-07T08:23:46.175Z,31.42
2019-05-07T08:26:16.593Z,32.90
2019-05-07T08:28:47.101Z,32.17
2019-05-07T08:31:36.387Z,32.99
2019-05-07T08:34:18.211Z,34.71
2019-05-07T08:36:49.916Z,37.13
2019-05-07T08:39:22.334Z,37.79
2019-05-07T08:41:52.783Z,37.06
2019-05-07T08:44:26.878Z,38.03
2019-05-07T08:47:06.116Z,36.24
2019-05-07T08:49:40.202Z,34.39
2019-05-07T08:52:11.833Z,36.01
2019-05-07T08:54:42.829Z,36.60
2019-05-07T08:57:13.435Z,38.27
2019-05-07T08:59:57.199Z,36.98
2019-05-07T09:02:15.914Z,35.97
2019-05-07T09:04:46.361Z,36.81
2019-05-07T09:07:16.787Z,35.71
2019-05-07T09:09:47.334Z,36.43
2019-05-07T09:12:17.699Z,37.29
2019-05-07T09:14:48.124Z,36.12
2019-05-07T09:17:18.478Z,35.44
2019-05-07T09:19:52.130Z,36.60
2019-05-07T09:22:23.029Z,36.68
2019-05-07T09:24:53.402Z,36.30
2019-05-07T09:27:36.182Z,35.97
2019-05-07T09:30:22.053Z,35.55
2019-05-07T09:32:56.531Z,36.51
2019-05-07T09:35:32.500Z,35.54
2019-05-07T09:38:03.294Z,35.50
2019-05-07T09:40:33.770Z,34.49
2019-05-07T09:43:04.145Z,34.07
2019-05-07T09:45:34.612Z,34.02
2019-05-07T09:48:05.141Z,33.01
2019-05-07T09:50:35.524Z,34.46
2019-05-07T09:53:05.997Z,34.65
2019-05-07T09:55:36.451Z,32.75
2019-05-07T09:58:06.940Z,33.01
2019-05-07T10:00:38.218Z,33.10
2019-05-07T10:03:08.696Z,31.85
2019-05-07T10:05:39.205Z,29.22
2019-05-07T10:08:09.774Z,28.03
2019-05-07T10:10:41.678Z,28.07
2019-05-07T10:13:43.064Z,28.45
2019-05-07T10:16:16.508Z,30.08
2019-05-07T10:18:46.999Z,30.31
2019-05-07T10:21:17.504Z,31.52
2019-05-07T10:23:48.012Z,32.28
2019-05-07T10:26:18.982Z,32.96
2019-05-07T10:28:49.418Z,33.83
2019-05-07T10:31:19.865Z,32.61
2019-05-07T10:33:52.271Z,33.18
2019-05-07T10:36:22.893Z,33.12
2019-05-07T10:38:53.326Z,32.90
2019-05-07T10:41:23.866Z,33.98
2019-05-07T10:43:54.302Z,34.14
2019-05-07T10:46:34.543Z,32.21
2019-05-07T10:49:14.914Z,32.19
2019-05-07T10:51:45.519Z,32.84
2019-05-07T10:54:16.116Z,31.83
2019-05-07T10:56:46.511Z,32.40
2019-05-07T10:59:17.026Z,30.61
2019-05-07T11:01:59.797Z,30.42
2019-05-07T11:04:40.209Z,27.91
2019-05-07T11:07:02.285Z,24.82
2019-05-07T11:09:32.906Z,22.41
2019-05-07T11:12:03.255Z,23.57
2019-05-07T11:14:33.732Z,22.13
2019-05-07T11:17:32.633Z,21.23
2019-05-07T11:20:03.751Z,20.16
2019-05-07T11:22:34.430Z,18.83
2019-05-07T11:25:05.418Z,19.18
2019-05-07T11:27:35.971Z,18.41
2019-05-07T11:30:07.118Z,20.33
2019-05-07T11:32:37.542Z,20.44
2019-05-07T11:35:08.429Z,19.15
2019-05-07T11:37:39.020Z,20.44
2019-05-07T11:40:09.767Z,19.82
2019-05-07T11:43:05.020Z,19.28
2019-05-07T11:45:44.710Z,20.34
2019-05-07T11:48:15.931Z,19.74
2019-05-07T11:51:08.090Z,19.12
2019-05-07T11:53:41.884Z,19.95
2019-05-07T11:56:12.583Z,19.77
2019-05-07T11:58:43.028Z,19.77
2019-05-07T12:01:17.839Z,19.09
2019-05-07T12:03:48.274Z,19.31
2019-05-07T12:06:18.688Z,19.51
2019-05-07T12:08:51.995Z,18.81
2019-05-07T12:11:21.910Z,18.28
2019-05-07T12:13:53.053Z,18.43
2019-05-07T12:16:23.662Z,18.58
2019-05-07T12:18:55.510Z,18.45
2019-05-07T12:21:26.060Z,18.50
2019-05-07T12:23:56.400Z,19.56
2019-05-07T12:26:27.727Z,19.62
2019-05-07T12:28:58.205Z,20.73
2019-05-07T12:31:43.793Z,21.34
2019-05-07T12:34:18.060Z,20.92
2019-05-07T12:36:48.490Z,22.47
2019-05-07T12:39:18.942Z,21.24
2019-05-07T12:41:49.444Z,20.17
2019-05-07T12:44:22.054Z,19.84
2019-05-07T12:46:52.544Z,17.84
2019-05-07T12:49:22.999Z,17.16
2019-05-07T12:52:12.660Z,18.24
2019-05-07T12:54:57.313Z,15.82
2019-05-07T12:57:27.764Z,16.59
2019-05-07T13:00:17.020Z,16.73
2019-05-07T13:03:07.509Z,15.64
2019-05-07T13:05:37.955Z,15.23
2019-05-07T13:08:08.576Z,15.64
2019-05-07T13:10:39.029Z,15.05
2019-05-07T13:13:09.439Z,13.95
2019-05-07T13:15:39.772Z,14.06
2019-05-07T13:18:10.244Z,13.36
2019-05-07T13:20:40.677Z,13.67
2019-05-07T13:23:12.001Z,14.94
2019-05-07T13:25:43.031Z,14.26
2019-05-07T13:28:13.702Z,15.23
2019-05-07T13:30:44.104Z,15.70
2019-05-07T13:33:16.846Z,15.73
2019-05-07T13:35:48.685Z,16.96
2019-05-07T13:38:33.293Z,19.08
2019-05-07T13:41:23.237Z,19.40
2019-05-07T13:44:18.707Z,20.63
2019-05-07T13:46:53.041Z,20.43
2019-05-07T13:49:23.807Z,22.82
2019-05-07T13:52:02.827Z,23.04
2019-05-07T13:54:26.482Z,22.79
2019-05-07T13:56:56.907Z,22.92
2019-05-07T13:59:27.316Z,24.52
2019-05-07T14:02:05.410Z,24.29
2019-05-07T14:04:35.803Z,22.69
2019-05-07T14:07:06.271Z,24.27
2019-05-07T14:09:36.658Z,26.44
2019-05-07T14:12:07.147Z,25.62
2019-05-07T14:14:37.912Z,25.35
2019-05-07T14:17:08.315Z,26.07
2019-05-07T14:19:38.706Z,26.61
2019-05-07T14:22:17.953Z,26.82
2019-05-07T14:24:42.190Z,26.25
2019-05-07T14:27:12.870Z,26.79
2019-05-07T14:29:43.301Z,28.69
2019-05-07T14:32:42.126Z,27.76
2019-05-07T14:35:32.629Z,26.93
2019-05-07T14:38:07.098Z,26.24
2019-05-07T14:40:37.505Z,26.24
2019-05-07T14:43:12.825Z,26.43
2019-05-07T14:45:43.422Z,25.35
2019-05-07T14:48:13.874Z,24.26
2019-05-07T14:50:44.971Z,25.21
2019-05-07T14:53:15.662Z,24.40
2019-05-07T14:55:46.134Z,26.29
2019-05-07T14:58:16.568Z,24.95
2019-05-07T15:00:46.858Z,25.26
2019-05-07T15:03:17.260Z,24.16
2019-05-07T15:05:47.654Z,24.53
2019-05-07T15:08:18.143Z,25.75
2019-05-07T15:10:48.962Z,26.66
2019-05-07T15:13:21.649Z,26.14
2019-05-07T15:15:52.571Z,26.81
2019-05-07T15:18:32.247Z,26.68
2019-05-07T15:21:02.690Z,27.06
2019-05-07T15:23:35.818Z,26.93
2019-05-07T15:26:06.465Z,26.99
2019-05-07T15:28:38.694Z,26.66
2019-05-07T15:31:18.131Z,28.69
2019-05-07T15:33:48.633Z,27.22
2019-05-07T15:36:19.080Z,25.96
2019-05-07T15:38:49.485Z,25.95
2019-05-07T15:41:19.815Z,26.00
2019-05-07T15:43:52.140Z,24.56
2019-05-07T15:46:22.707Z,24.54
2019-05-07T15:48:53.297Z,23.45
2019-05-07T15:51:23.745Z,23.84
2019-05-07T15:53:58.505Z,22.59
2019-05-07T15:56:29.024Z,22.45
2019-05-07T15:58:59.367Z,21.53
2019-05-07T16:01:29.878Z,21.97
2019-05-07T16:04:02.612Z,21.80
2019-05-07T16:06:32.512Z,21.85
2019-05-07T16:09:04.626Z,22.48
2019-05-07T16:11:35.344Z,22.46
2019-05-07T16:14:32.084Z,23.40
2019-05-07T16:17:12.944Z,24.28
2019-05-07T16:19:43.313Z,25.20
2019-05-07T16:22:19.090Z,26.25
2019-05-07T16:24:49.505Z,25.73
2019-05-07T16:27:19.964Z,24.99
2019-05-07T16:29:52.524Z,26.13
2019-05-07T16:32:24.200Z,26.01
2019-05-07T16:34:55.010Z,26.00
2019-05-07T16:37:25.406Z,25.18
2019-05-07T16:39:55.851Z,24.25
2019-05-07T16:42:26.310Z,24.95
2019-05-07T16:44:56.774Z,25.45
2019-05-07T16:47:27.141Z,26.10
2019-05-07T16:49:57.483Z,26.78
2019-05-07T16:52:28.015Z,28.06
2019-05-07T16:54:59.658Z,28.46
2019-05-07T16:57:48.890Z,27.72
2019-05-07T17:00:29.217Z,27.55
2019-05-07T17:03:02.194Z,27.78
2019-05-07T17:05:32.829Z,29.89
2019-05-07T17:08:22.372Z,29.90
2019-05-07T17:10:53.182Z,28.03
2019-05-07T17:13:23.641Z,28.21
2019-05-07T17:16:03.349Z,28.22
2019-05-07T17:18:34.043Z,27.80
2019-05-07T17:21:04.574Z,29.28
2019-05-07T17:23:44.114Z,32.31
2019-05-07T17:26:07.153Z,30.92
2019-05-07T17:28:37.905Z,33.08
2019-05-07T17:31:08.353Z,30.85
2019-05-07T17:33:38.783Z,31.62
2019-05-07T17:36:09.355Z,33.65
2019-05-07T17:38:39.637Z,32.80
2019-05-07T17:41:18.179Z,35.13
2019-05-07T17:43:42.252Z,34.03
2019-05-07T17:46:12.609Z,35.59
2019-05-07T17:48:43.061Z,35.44
2019-05-07T17:51:32.412Z,35.29
2019-05-07T17:54:02.959Z,36.18
2019-05-07T17:56:33.333Z,36.55
2019-05-07T17:59:03.791Z,36.45
2019-05-07T18:01:44.884Z,36.58
2019-05-07T18:04:15.391Z,38.29
2019-05-07T18:06:45.970Z,39.35
2019-05-07T18:09:16.353Z,41.43
2019-05-07T18:11:46.645Z,40.58
2019-05-07T18:14:17.117Z,42.27
2019-05-07T18:17:15.833Z,41.57
2019-05-07T18:19:50.336Z,43.95
2019-05-07T18:22:22.153Z,42.95
2019-05-07T18:24:52.941Z,42.58
2019-05-07T18:27:25.080Z,43.75
2019-05-07T18:29:55.581Z,43.36
2019-05-07T18:32:32.417Z,45.15
2019-05-07T18:35:02.974Z,46.11
2019-05-07T18:37:33.379Z,45.33
2019-05-07T18:40:03.852Z,46.05
2019-05-07T18:42:34.303Z,45.26
2019-05-07T18:45:04.871Z,43.70
2019-05-07T18:47:35.318Z,45.26
2019-05-07T18:50:05.849Z,46.02
2019-05-07T18:52:36.728Z,45.30
2019-05-07T18:55:07.463Z,46.31
2019-05-07T18:57:37.905Z,45.70
2019-05-07T19:00:13.431Z,45.26
2019-05-07T19:02:43.906Z,47.09
2019-05-07T19:05:14.317Z,47.12
2019-05-07T19:07:44.709Z,48.59
2019-05-07T19:10:15.517Z,48.59
2019-05-07T19:12:46.061Z,49.50
2019-05-07T19:15:17.158Z,48.84
2019-05-07T19:17:47.661Z,49.98
2019-05-07T19:20:18.132Z,50.28
2019-05-07T19:22:48.451Z,50.36
2019-05-07T19:25:18.797Z,50.66
2019-05-07T19:27:49.296Z,51.80
2019-05-07T19:30:21.795Z,51.13
2019-05-07T19:32:52.249Z,52.15
2019-05-07T19:35:23.240Z,53.95
2019-05-07T19:37:53.699Z,51.88
2019-05-07T19:40:24.112Z,54.00
2019-05-07T19:42:54.774Z,54.76
2019-05-07T19:45:25.423Z,55.56
2019-05-07T19:47:55.835Z,55.79
2019-05-07T19:50:26.326Z,56.09
2019-05-07T19:52:56.677Z,59.05
2019-05-07T19:55:27.127Z,58.97
2019-05-07T19:58:01.759Z,60.87
2019-05-07T20:00:32.790Z,60.97
2019-05-07T20:03:03.570Z,61.90
2019-05-07T20:05:37.162Z,61.55
2019-05-07T20:08:06.064Z,61.84
2019-05-07T20:10:42.275Z,62.81
2019-05-07T20:13:12.972Z,63.02
2019-05-07T20:15:46.617Z,63.58
2019-05-07T20:18:17.034Z,63.88
2019-05-07T20:20:47.394Z,64.26
2019-05-07T20:23:20.147Z,64.47
2019-05-07T20:25:52.760Z,64.61
2019-05-07T20:28:22.678Z,65.41
2019-05-07T20:30:56.009Z,66.16
2019-05-07T20:33:25.239Z,65.48
2019-05-07T20:35:55.610Z,66.43
2019-05-07T20:38:26.125Z,66.84
2019-05-07T20:40:56.544Z,67.21
2019-05-07T20:43:26.988Z,67.30
2019-05-07T20:45:57.418Z,67.14
2019-05-07T20:48:27.831Z,68.04
2019-05-07T20:50:58.279Z,67.74
2019-05-07T20:53:46.204Z,67.96
2019-05-07T20:56:18.114Z,68.36
2019-05-07T20:58:48.509Z,68.51
2019-05-07T21:01:18.830Z,68.69
2019-05-07T21:03:49.302Z,68.87
2019-05-07T21:06:19.662Z,68.17
2019-05-07T21:08:50.119Z,67.78
2019-05-07T21:11:22.557Z,67.77
2019-05-07T21:13:52.713Z,68.54
2019-05-07T21:16:23.123Z,68.66
2019-05-07T21:18:53.526Z,68.16
2019-05-07T21:21:23.978Z,68.01
2019-05-07T21:23:54.436Z,68.56
2019-05-07T21:26:24.899Z,68.78
2019-05-07T21:28:55.398Z,68.88
2019-05-07T21:31:25.749Z,69.20
2019-05-07T21:33:56.159Z,68.56
2019-05-07T21:36:27.571Z,68.93
2019-05-07T21:38:57.981Z,68.88
2019-05-07T21:41:28.252Z,69.49
2019-05-07T21:43:58.720Z,69.25
2019-05-07T21:46:29.113Z,69.60
2019-05-07T21:48:59.595Z,70.50
2019-05-07T21:51:30.025Z,70.88
2019-05-07T21:54:11.968Z,71.13
2019-05-07T21:56:52.212Z,69.85
2019-05-07T21:59:25.190Z,70.26
2019-05-07T22:02:02.071Z,69.96
2019-05-07T22:04:32.034Z,69.95
2019-05-07T22:07:03.007Z,69.83
2019-05-07T22:09:33.463Z,69.96
2019-05-07T22:12:03.902Z,70.84
2019-05-07T22:14:34.330Z,70.14
2019-05-07T22:17:05.447Z,70.73
2019-05-07T22:19:35.784Z,70.29
2019-05-07T22:22:06.261Z,69.78
2019-05-07T22:24:36.551Z,70.84
2019-05-07T22:27:07.028Z,70.69
2019-05-07T22:29:37.350Z,70.49
2019-05-07T22:32:30.787Z,71.01
2019-05-07T22:35:15.092Z,70.59
2019-05-07T22:37:45.587Z,68.89
2019-05-07T22:40:16.442Z,68.79
2019-05-07T22:42:46.824Z,69.44
2019-05-07T22:45:17.600Z,69.93
2019-05-07T22:47:48.259Z,69.58
2019-05-07T22:50:18.971Z,69.85
2019-05-07T22:52:49.758Z,69.71
2019-05-07T22:55:21.827Z,69.46
2019-05-07T22:58:00.994Z,69.53
2019-05-07T23:00:38.062Z,68.51
2019-05-07T23:03:08.696Z,68.06
2019-05-07T23:05:39.140Z,69.14
2019-05-07T23:08:09.720Z,68.48
2019-05-07T23:10:42.124Z,67.16
2019-05-07T23:13:13.081Z,66.93
2019-05-07T23:15:44.556Z,66.52
2019-05-07T23:18:14.989Z,66.43
2019-05-07T23:20:45.529Z,66.55
2019-05-07T23:23:16.007Z,66.17
2019-05-07T23:25:49.312Z,66.09
2019-05-07T23:28:19.792Z,65.86
2019-05-07T23:30:51.816Z,65.47
2019-05-07T23:33:22.755Z,65.75
2019-05-07T23:35:53.371Z,65.70
2019-05-07T23:38:23.982Z,65.90
2019-05-07T23:41:02.610Z,65.79
2019-05-07T23:43:33.781Z,66.06
2019-05-07T23:46:04.523Z,66.11
2019-05-07T23:48:35.086Z,66.49
2019-05-07T23:51:05.613Z,67.08
2019-05-07T23:53:36.169Z,67.04
2019-05-07T23:56:07.005Z,67.26
2019-05-07T23:58:37.494Z,67.80
